Main page
Satellite images 10-day forecastsClimateMarine weather Cyclones Lightning AirportsFAQ Newsletter About
Weather : Europe Africa North America South America Asia Australia-Oceania Others
Languages Contact

London, England

London City Airport

latitude: 51-30N, longitude: 000-03E, elevation: 5 m


METAR: EGLC 040520Z 29007KT CAVOK 13/08 Q1016
TAF: EGLC 040500Z 0406/0415 31006KT 9999 SCT035 TEMPO 0407/0415 7000 SHRA

Time: 06:47 (05:47 UTC)

Current weather observation

The report was made 27 minutes ago, at 05:20 UTC
Wind 7 kt from the West/Northwest
Temperature 13°C
Humidity 72%
Pressure 1016 hPa
Visibility 10 km or more
no clouds below 1500 m and no cumulonimbus

Change units

Forecast

The report was made 47 minutes ago, at 05:00 UTC
Forecast valid from 04 at 06 UTC to 04 at 15 UTC
Wind 6 kt from the Northwest
Visibility 10 km or more
Scattered clouds at a height of 3500 ft
Temporary
from 04 at 07 UTC to 04 at 15 UTC
Visibility: 7000 m
rain showers
The information on this site is subject to a disclaimer
Weather : Europe Africa North America South America Asia Australia-Oceania Others
Satellite images 10-day forecastsClimateMarine weather Cyclones Lightning AirportsFAQ Languages Contact Newsletter About